Main page
METAR-TAF:

METAR-TAF

Airports :

Nouakchott–Oumtounsy International Airport

Nouakchott, Mauritania

latitude: 18-18-36N, longitude: 015-58-11W, elevation: 3 m

Current weather observation

The report was made 23 minutes ago, at 00:30 UTC
Wind 8 kt from the North/Northwest
Temperature 17°C
Humidity 94%
Pressure 1015 hPa
Visibility: 7000 m

METAR: GQNO 160030Z 34008KT 7000 NSC 17/16 Q1015 NOSIG

Time: 00:53 (00:53 UTC)

Forecast

The report was made 1 hour and 53 minutes ago, at 23:00 UTC
Forecast valid from 16 at 00 UTC to 17 at 06 UTC
Wind 8 kt from the North/Northwest
Visibility: 6000 m
Probability 30% :
Temporary
from 16 at 04 UTC to 16 at 08 UTC
Visibility: 2000 m
Broken clouds at a height of 1000 ft
mist
Becoming
from 16 at 08 UTC to 16 at 10 UTC
Wind 10 kt from the East/Northeast
Becoming
from 16 at 16 UTC to 16 at 19 UTC
Wind 10 kt from the North

TAF: GQNO 152300Z 1600/1706 34008KT 6000 NSC PROB30 TEMPO 1604/1608 2000 BR BKN010 BECMG 1608/1610 06010KT BECMG 1616/1619 35010KT

Weather observations and forecasts of more than 4000 airports (METAR and TAF reports).

The available stations are represented by yellow and red dots on the map.

Hover mouse over dot to see the name of the station.

Then click to see weather observations and forecasts.

To change the map : click on the green buttons with a black cross to zoom in, on the green button with a dash to zoom out, or on the green arrows for adjacent maps.


METAR-TAF: